首页
METAR-TAF:

METAR-TAF

机场 :

彼得斯堡, 阿拉斯加州, 美国

纬度: 56-49N, 经度: 132-58W, 海拔: 0米

当前天气观测

该预报发布于1小时和4分钟前的18:56 UTC
风速5节,风向东转东北
温度 3°C
湿度 65%
气压 1028 hPa
能見度: 16.1公里
多云层高于4400英尺
多云层高于5500英尺

METAR: PAPG 071856Z 07005KT 10SM BKN044 BKN055 03/M03 A3035

时间: 12:00 (20:00 UTC)

预报

该预报发布于2小时和18分钟前的17:42 UTC
预报有效从07日的 18点(UTC)到 08日的 18点(UTC)
风速6节,风向
能見度: 10公里
少量云层高于3000英尺
散云层高于8000英尺
从 08日的 0900点(UTC)
风速8节,风向东南
能見度: 4.8公里
多云层高于2500英尺
阴天层高于4000英尺
小雪

TAF: PAPG 071742Z 0718/0818 08006KT P6SM FEW030 SCT080 FM080900 14008KT 3SM -SN BKN025 OVC040 WS020/14030KT AMD LTD TO CLD VIS AND WIND 0806/0815

超过4000个机场的气象观测和天气预报(METAR&TAF报告)。

可查询的气象台以黄色和红色小点在地图上表示。

将鼠标移到小点上方,可查看气象台名称。

然后点击查看天气观测和预报。

如需切换地图:点击带黑十字的绿色按钮放大地图;点击带横线的绿色按钮缩小地图;或者点击绿色箭头查看邻近地区的地图。


METAR-TAF: